sensor_id;sensor_type;location;lat;lon;timestamp;P1;durP1;ratioP1;P2;durP2;ratioP2
63342;SDS011;49465;57.664;39.686;2023-05-20T00:00:44;2.05;;;0.63;;
63342;SDS011;49465;57.664;39.686;2023-05-20T00:03:16;1.13;;;0.50;;
63342;SDS011;49465;57.664;39.686;2023-05-20T00:05:44;1.58;;;0.57;;
63342;SDS011;49465;57.664;39.686;2023-05-20T00:08:10;2.95;;;0.80;;
63342;SDS011;49465;57.664;39.686;2023-05-20T00:10:37;2.15;;;0.50;;
63342;SDS011;49465;57.664;39.686;2023-05-20T00:13:04;2.08;;;0.70;;
63342;SDS011;49465;57.664;39.686;2023-05-20T00:15:31;4.18;;;0.60;;
63342;SDS011;49465;57.664;39.686;2023-05-20T00:18:00;1.85;;;0.50;;
63342;SDS011;49465;57.664;39.686;2023-05-20T00:20:28;1.33;;;0.50;;
63342;SDS011;49465;57.664;39.686;2023-05-20T00:22:57;0.90;;;0.50;;
63342;SDS011;49465;57.664;39.686;2023-05-20T00:25:23;0.77;;;0.50;;
63342;SDS011;49465;57.664;39.686;2023-05-20T00:27:50;0.60;;;0.55;;
63342;SDS011;49465;57.664;39.686;2023-05-20T00:30:16;0.57;;;0.45;;
63342;SDS011;49465;57.664;39.686;2023-05-20T00:32:46;0.60;;;0.60;;
63342;SDS011;49465;57.664;39.686;2023-05-20T00:35:14;1.23;;;0.50;;
63342;SDS011;49465;57.664;39.686;2023-05-20T00:37:41;1.15;;;0.60;;
63342;SDS011;49465;57.664;39.686;2023-05-20T00:40:08;0.63;;;0.60;;
63342;SDS011;49465;57.664;39.686;2023-05-20T00:42:37;1.08;;;0.52;;
63342;SDS011;49465;57.664;39.686;2023-05-20T00:45:04;1.50;;;0.65;;
63342;SDS011;49465;57.664;39.686;2023-05-20T00:47:31;1.52;;;0.50;;
63342;SDS011;49465;57.664;39.686;2023-05-20T00:50:00;1.42;;;0.60;;
63342;SDS011;49465;57.664;39.686;2023-05-20T00:52:30;1.48;;;0.60;;
63342;SDS011;49465;57.664;39.686;2023-05-20T00:54:59;1.40;;;0.55;;
63342;SDS011;49465;57.664;39.686;2023-05-20T00:57:35;0.65;;;0.60;;
63342;SDS011;49465;57.664;39.686;2023-05-20T01:00:02;0.50;;;0.50;;
63342;SDS011;49465;57.664;39.686;2023-05-20T01:02:32;1.30;;;0.50;;
63342;SDS011;49465;57.664;39.686;2023-05-20T01:04:58;0.85;;;0.60;;
63342;SDS011;49465;57.664;39.686;2023-05-20T01:07:25;1.55;;;0.60;;
63342;SDS011;49465;57.664;39.686;2023-05-20T01:09:51;1.33;;;0.60;;
63342;SDS011;49465;57.664;39.686;2023-05-20T01:12:41;0.77;;;0.60;;
63342;SDS011;49465;57.664;39.686;2023-05-20T01:15:28;1.42;;;0.70;;
63342;SDS011;49465;57.664;39.686;2023-05-20T01:17:57;1.30;;;0.70;;
63342;SDS011;49465;57.664;39.686;2023-05-20T01:20:29;2.38;;;0.60;;
63342;SDS011;49465;57.664;39.686;2023-05-20T01:22:59;3.05;;;0.70;;
63342;SDS011;49465;57.664;39.686;2023-05-20T01:25:26;1.02;;;0.50;;
63342;SDS011;49465;57.664;39.686;2023-05-20T01:27:53;1.35;;;0.60;;
63342;SDS011;49465;57.664;39.686;2023-05-20T01:30:22;1.25;;;0.60;;
63342;SDS011;49465;57.664;39.686;2023-05-20T01:32:57;2.22;;;0.60;;
63342;SDS011;49465;57.664;39.686;2023-05-20T01:35:28;1.90;;;0.60;;
63342;SDS011;49465;57.664;39.686;2023-05-20T01:37:55;0.60;;;0.60;;
63342;SDS011;49465;57.664;39.686;2023-05-20T01:40:23;2.90;;;0.60;;
63342;SDS011;49465;57.664;39.686;2023-05-20T01:42:51;1.33;;;0.70;;
63342;SDS011;49465;57.664;39.686;2023-05-20T01:45:19;1.35;;;0.65;;
63342;SDS011;49465;57.664;39.686;2023-05-20T01:47:48;1.45;;;0.60;;
63342;SDS011;49465;57.664;39.686;2023-05-20T01:50:17;0.88;;;0.50;;
63342;SDS011;49465;57.664;39.686;2023-05-20T01:52:43;1.08;;;0.60;;
63342;SDS011;49465;57.664;39.686;2023-05-20T01:55:10;0.95;;;0.50;;
63342;SDS011;49465;57.664;39.686;2023-05-20T01:57:36;1.35;;;0.60;;
63342;SDS011;49465;57.664;39.686;2023-05-20T02:00:02;2.97;;;0.70;;
63342;SDS011;49465;57.664;39.686;2023-05-20T02:02:30;1.33;;;0.60;;
63342;SDS011;49465;57.664;39.686;2023-05-20T02:04:57;0.70;;;0.70;;
63342;SDS011;49465;57.664;39.686;2023-05-20T02:07:23;1.33;;;0.60;;
63342;SDS011;49465;57.664;39.686;2023-05-20T02:09:49;1.48;;;0.60;;
63342;SDS011;49465;57.664;39.686;2023-05-20T02:12:16;2.92;;;0.60;;
63342;SDS011;49465;57.664;39.686;2023-05-20T02:14:43;0.88;;;0.60;;
63342;SDS011;49465;57.664;39.686;2023-05-20T02:17:10;1.48;;;0.70;;
63342;SDS011;49465;57.664;39.686;2023-05-20T02:19:40;0.90;;;0.73;;
63342;SDS011;49465;57.664;39.686;2023-05-20T02:22:07;1.17;;;0.57;;
63342;SDS011;49465;57.664;39.686;2023-05-20T02:24:33;2.20;;;0.60;;
63342;SDS011;49465;57.664;39.686;2023-05-20T02:26:59;0.40;;;0.40;;
63342;SDS011;49465;57.664;39.686;2023-05-20T02:29:27;1.52;;;0.50;;
63342;SDS011;49465;57.664;39.686;2023-05-20T02:31:56;0.68;;;0.50;;
63342;SDS011;49465;57.664;39.686;2023-05-20T02:34:22;1.48;;;0.60;;
63342;SDS011;49465;57.664;39.686;2023-05-20T02:36:50;0.70;;;0.60;;
63342;SDS011;49465;57.664;39.686;2023-05-20T02:39:21;0.65;;;0.63;;
63342;SDS011;49465;57.664;39.686;2023-05-20T02:41:47;1.58;;;0.60;;
63342;SDS011;49465;57.664;39.686;2023-05-20T02:44:17;1.08;;;0.70;;
63342;SDS011;49465;57.664;39.686;2023-05-20T02:46:43;1.15;;;0.43;;
63342;SDS011;49465;57.664;39.686;2023-05-20T02:49:09;0.73;;;0.60;;
63342;SDS011;49465;57.664;39.686;2023-05-20T02:51:36;0.63;;;0.60;;
63342;SDS011;49465;57.664;39.686;2023-05-20T02:54:02;2.10;;;0.60;;
63342;SDS011;49465;57.664;39.686;2023-05-20T02:56:28;1.30;;;0.60;;
63342;SDS011;49465;57.664;39.686;2023-05-20T02:58:56;1.15;;;0.70;;
63342;SDS011;49465;57.664;39.686;2023-05-20T03:01:22;5.72;;;0.80;;
63342;SDS011;49465;57.664;39.686;2023-05-20T03:03:49;1.02;;;0.63;;
63342;SDS011;49465;57.664;39.686;2023-05-20T03:06:16;2.97;;;0.77;;
63342;SDS011;49465;57.664;39.686;2023-05-20T03:08:42;0.80;;;0.60;;
63342;SDS011;49465;57.664;39.686;2023-05-20T03:11:09;1.67;;;0.70;;
63342;SDS011;49465;57.664;39.686;2023-05-20T03:13:35;0.77;;;0.70;;
63342;SDS011;49465;57.664;39.686;2023-05-20T03:16:02;1.00;;;0.60;;
63342;SDS011;49465;57.664;39.686;2023-05-20T03:18:28;0.60;;;0.60;;
63342;SDS011;49465;57.664;39.686;2023-05-20T03:20:55;1.77;;;0.65;;
63342;SDS011;49465;57.664;39.686;2023-05-20T03:23:22;2.05;;;0.60;;
63342;SDS011;49465;57.664;39.686;2023-05-20T03:25:48;0.60;;;0.60;;
63342;SDS011;49465;57.664;39.686;2023-05-20T03:28:17;0.98;;;0.70;;
63342;SDS011;49465;57.664;39.686;2023-05-20T03:30:43;1.50;;;0.70;;
63342;SDS011;49465;57.664;39.686;2023-05-20T03:33:10;1.15;;;0.80;;
63342;SDS011;49465;57.664;39.686;2023-05-20T03:35:37;1.13;;;0.68;;
63342;SDS011;49465;57.664;39.686;2023-05-20T03:38:03;1.27;;;0.73;;
63342;SDS011;49465;57.664;39.686;2023-05-20T03:40:32;0.68;;;0.68;;
63342;SDS011;49465;57.664;39.686;2023-05-20T03:43:01;1.05;;;0.65;;
63342;SDS011;49465;57.664;39.686;2023-05-20T03:45:30;1.90;;;0.90;;
63342;SDS011;49465;57.664;39.686;2023-05-20T03:47:59;2.35;;;0.70;;
63342;SDS011;49465;57.664;39.686;2023-05-20T03:50:27;1.20;;;0.70;;
63342;SDS011;49465;57.664;39.686;2023-05-20T03:52:55;0.70;;;0.70;;
63342;SDS011;49465;57.664;39.686;2023-05-20T03:55:21;0.68;;;0.60;;
63342;SDS011;49465;57.664;39.686;2023-05-20T03:57:48;0.88;;;0.70;;
63342;SDS011;49465;57.664;39.686;2023-05-20T04:00:15;0.70;;;0.70;;
63342;SDS011;49465;57.664;39.686;2023-05-20T04:02:42;0.77;;;0.70;;
63342;SDS011;49465;57.664;39.686;2023-05-20T04:05:12;2.78;;;0.65;;
63342;SDS011;49465;57.664;39.686;2023-05-20T04:07:38;1.50;;;0.60;;
63342;SDS011;49465;57.664;39.686;2023-05-20T04:10:05;0.75;;;0.70;;
63342;SDS011;49465;57.664;39.686;2023-05-20T04:12:32;0.70;;;0.70;;
63342;SDS011;49465;57.664;39.686;2023-05-20T04:15:01;10.00;;;0.70;;
63342;SDS011;49465;57.664;39.686;2023-05-20T04:17:28;2.03;;;0.60;;
63342;SDS011;49465;57.664;39.686;2023-05-20T04:19:58;2.00;;;0.70;;
63342;SDS011;49465;57.664;39.686;2023-05-20T04:22:25;1.60;;;0.80;;
63342;SDS011;49465;57.664;39.686;2023-05-20T04:24:54;2.58;;;0.80;;
63342;SDS011;49465;57.664;39.686;2023-05-20T04:27:20;2.25;;;0.70;;
63342;SDS011;49465;57.664;39.686;2023-05-20T04:29:47;1.23;;;0.70;;
63342;SDS011;49465;57.664;39.686;2023-05-20T04:32:16;2.40;;;0.85;;
63342;SDS011;49465;57.664;39.686;2023-05-20T04:34:43;0.80;;;0.70;;
63342;SDS011;49465;57.664;39.686;2023-05-20T04:37:12;2.30;;;0.75;;
63342;SDS011;49465;57.664;39.686;2023-05-20T04:39:42;0.98;;;0.70;;
63342;SDS011;49465;57.664;39.686;2023-05-20T04:42:08;0.80;;;0.75;;
63342;SDS011;49465;57.664;39.686;2023-05-20T04:44:35;2.03;;;0.80;;
63342;SDS011;49465;57.664;39.686;2023-05-20T04:47:01;1.00;;;0.70;;
63342;SDS011;49465;57.664;39.686;2023-05-20T04:49:28;0.70;;;0.70;;
63342;SDS011;49465;57.664;39.686;2023-05-20T04:51:54;1.45;;;0.90;;
63342;SDS011;49465;57.664;39.686;2023-05-20T04:54:21;2.58;;;0.80;;
63342;SDS011;49465;57.664;39.686;2023-05-20T04:56:47;0.77;;;0.73;;
63342;SDS011;49465;57.664;39.686;2023-05-20T04:59:15;0.80;;;0.80;;
63342;SDS011;49465;57.664;39.686;2023-05-20T05:01:41;1.60;;;0.80;;
63342;SDS011;49465;57.664;39.686;2023-05-20T05:04:08;2.08;;;0.70;;
63342;SDS011;49465;57.664;39.686;2023-05-20T05:06:34;3.95;;;0.80;;
63342;SDS011;49465;57.664;39.686;2023-05-20T05:09:03;0.73;;;0.70;;
63342;SDS011;49465;57.664;39.686;2023-05-20T05:11:30;0.80;;;0.80;;
63342;SDS011;49465;57.664;39.686;2023-05-20T05:13:56;1.42;;;0.77;;
63342;SDS011;49465;57.664;39.686;2023-05-20T05:16:22;1.98;;;0.70;;
63342;SDS011;49465;57.664;39.686;2023-05-20T05:18:48;0.85;;;0.70;;
63342;SDS011;49465;57.664;39.686;2023-05-20T05:21:16;0.82;;;0.82;;
63342;SDS011;49465;57.664;39.686;2023-05-20T05:23:42;2.30;;;0.77;;
63342;SDS011;49465;57.664;39.686;2023-05-20T05:26:12;1.92;;;0.82;;
63342;SDS011;49465;57.664;39.686;2023-05-20T05:28:40;0.70;;;0.70;;
63342;SDS011;49465;57.664;39.686;2023-05-20T05:31:10;3.20;;;0.90;;
63342;SDS011;49465;57.664;39.686;2023-05-20T05:33:36;2.42;;;0.70;;
63342;SDS011;49465;57.664;39.686;2023-05-20T05:36:02;1.00;;;0.90;;
63342;SDS011;49465;57.664;39.686;2023-05-20T05:38:30;1.40;;;0.88;;
63342;SDS011;49465;57.664;39.686;2023-05-20T05:40:57;0.70;;;0.70;;
63342;SDS011;49465;57.664;39.686;2023-05-20T05:43:24;0.95;;;0.80;;
63342;SDS011;49465;57.664;39.686;2023-05-20T05:45:53;0.73;;;0.70;;
63342;SDS011;49465;57.664;39.686;2023-05-20T05:48:20;3.50;;;0.80;;
63342;SDS011;49465;57.664;39.686;2023-05-20T05:50:47;1.50;;;0.80;;
63342;SDS011;49465;57.664;39.686;2023-05-20T05:53:13;1.83;;;0.80;;
63342;SDS011;49465;57.664;39.686;2023-05-20T05:55:42;1.52;;;0.80;;
63342;SDS011;49465;57.664;39.686;2023-05-20T05:58:10;2.03;;;0.75;;
63342;SDS011;49465;57.664;39.686;2023-05-20T06:00:37;2.70;;;0.90;;
63342;SDS011;49465;57.664;39.686;2023-05-20T06:03:03;1.10;;;0.90;;
63342;SDS011;49465;57.664;39.686;2023-05-20T06:05:30;1.38;;;0.80;;
63342;SDS011;49465;57.664;39.686;2023-05-20T06:07:57;1.00;;;0.70;;
63342;SDS011;49465;57.664;39.686;2023-05-20T06:10:28;1.55;;;0.85;;
63342;SDS011;49465;57.664;39.686;2023-05-20T06:12:54;3.65;;;0.88;;
63342;SDS011;49465;57.664;39.686;2023-05-20T06:15:21;2.25;;;1.00;;
63342;SDS011;49465;57.664;39.686;2023-05-20T06:17:50;0.88;;;0.70;;
63342;SDS011;49465;57.664;39.686;2023-05-20T06:20:16;2.15;;;0.70;;
63342;SDS011;49465;57.664;39.686;2023-05-20T06:22:43;1.27;;;0.70;;
63342;SDS011;49465;57.664;39.686;2023-05-20T06:25:10;0.95;;;0.85;;
63342;SDS011;49465;57.664;39.686;2023-05-20T06:27:37;0.95;;;0.82;;
63342;SDS011;49465;57.664;39.686;2023-05-20T06:30:03;1.95;;;0.88;;
63342;SDS011;49465;57.664;39.686;2023-05-20T06:32:33;1.05;;;0.90;;
63342;SDS011;49465;57.664;39.686;2023-05-20T06:34:59;1.30;;;0.90;;
63342;SDS011;49465;57.664;39.686;2023-05-20T06:37:25;1.48;;;0.80;;
63342;SDS011;49465;57.664;39.686;2023-05-20T06:39:52;1.08;;;0.90;;
63342;SDS011;49465;57.664;39.686;2023-05-20T06:42:21;1.08;;;0.90;;
63342;SDS011;49465;57.664;39.686;2023-05-20T06:44:47;2.58;;;1.00;;
63342;SDS011;49465;57.664;39.686;2023-05-20T06:47:16;1.42;;;0.90;;
63342;SDS011;49465;57.664;39.686;2023-05-20T06:49:43;1.30;;;0.90;;
63342;SDS011;49465;57.664;39.686;2023-05-20T06:52:12;1.77;;;0.90;;
63342;SDS011;49465;57.664;39.686;2023-05-20T06:54:41;1.33;;;1.00;;
63342;SDS011;49465;57.664;39.686;2023-05-20T06:57:07;1.67;;;1.00;;
63342;SDS011;49465;57.664;39.686;2023-05-20T06:59:37;1.77;;;1.05;;
63342;SDS011;49465;57.664;39.686;2023-05-20T07:02:04;1.65;;;0.90;;
63342;SDS011;49465;57.664;39.686;2023-05-20T07:04:30;1.67;;;1.00;;
63342;SDS011;49465;57.664;39.686;2023-05-20T07:06:56;1.23;;;0.90;;
63342;SDS011;49465;57.664;39.686;2023-05-20T07:09:23;0.90;;;0.70;;
63342;SDS011;49465;57.664;39.686;2023-05-20T07:11:49;2.30;;;0.90;;
63342;SDS011;49465;57.664;39.686;2023-05-20T07:14:16;1.80;;;0.90;;
63342;SDS011;49465;57.664;39.686;2023-05-20T07:16:42;1.45;;;0.82;;
63342;SDS011;49465;57.664;39.686;2023-05-20T07:19:09;0.98;;;0.70;;
63342;SDS011;49465;57.664;39.686;2023-05-20T07:21:35;1.70;;;0.90;;
63342;SDS011;49465;57.664;39.686;2023-05-20T07:24:01;2.22;;;1.00;;
63342;SDS011;49465;57.664;39.686;2023-05-20T07:26:28;0.75;;;0.70;;
63342;SDS011;49465;57.664;39.686;2023-05-20T07:28:57;1.40;;;0.80;;
63342;SDS011;49465;57.664;39.686;2023-05-20T07:31:24;3.17;;;0.88;;
63342;SDS011;49465;57.664;39.686;2023-05-20T07:33:51;2.53;;;1.10;;
63342;SDS011;49465;57.664;39.686;2023-05-20T07:36:20;1.38;;;1.00;;
63342;SDS011;49465;57.664;39.686;2023-05-20T07:38:47;0.90;;;0.80;;
63342;SDS011;49465;57.664;39.686;2023-05-20T07:41:13;0.98;;;0.70;;
63342;SDS011;49465;57.664;39.686;2023-05-20T07:43:39;3.28;;;0.80;;
63342;SDS011;49465;57.664;39.686;2023-05-20T07:46:08;1.48;;;0.80;;
63342;SDS011;49465;57.664;39.686;2023-05-20T07:48:37;3.33;;;0.80;;
63342;SDS011;49465;57.664;39.686;2023-05-20T07:51:06;1.25;;;0.70;;
63342;SDS011;49465;57.664;39.686;2023-05-20T07:53:32;0.90;;;0.70;;
63342;SDS011;49465;57.664;39.686;2023-05-20T07:56:03;2.08;;;0.70;;
63342;SDS011;49465;57.664;39.686;2023-05-20T07:58:30;2.45;;;0.70;;
63342;SDS011;49465;57.664;39.686;2023-05-20T08:00:56;1.13;;;0.60;;
63342;SDS011;49465;57.664;39.686;2023-05-20T08:03:23;0.98;;;0.68;;
63342;SDS011;49465;57.664;39.686;2023-05-20T08:05:50;4.15;;;0.70;;
63342;SDS011;49465;57.664;39.686;2023-05-20T08:08:17;1.38;;;0.80;;
63342;SDS011;49465;57.664;39.686;2023-05-20T08:10:43;0.82;;;0.70;;
63342;SDS011;49465;57.664;39.686;2023-05-20T08:13:10;0.95;;;0.65;;
63342;SDS011;49465;57.664;39.686;2023-05-20T08:15:36;1.15;;;0.70;;
63342;SDS011;49465;57.664;39.686;2023-05-20T08:18:02;0.93;;;0.60;;
63342;SDS011;49465;57.664;39.686;2023-05-20T08:20:29;0.80;;;0.70;;
63342;SDS011;49465;57.664;39.686;2023-05-20T08:22:55;2.10;;;0.70;;
63342;SDS011;49465;57.664;39.686;2023-05-20T08:25:21;2.50;;;0.75;;
63342;SDS011;49465;57.664;39.686;2023-05-20T08:27:48;1.33;;;0.80;;
63342;SDS011;49465;57.664;39.686;2023-05-20T08:30:26;1.85;;;0.70;;
63342;SDS011;49465;57.664;39.686;2023-05-20T08:32:52;4.25;;;0.80;;
63342;SDS011;49465;57.664;39.686;2023-05-20T08:35:18;1.83;;;0.70;;
63342;SDS011;49465;57.664;39.686;2023-05-20T08:37:50;1.67;;;0.80;;
63342;SDS011;49465;57.664;39.686;2023-05-20T08:40:18;2.58;;;0.80;;
63342;SDS011;49465;57.664;39.686;2023-05-20T08:42:45;1.20;;;0.85;;
63342;SDS011;49465;57.664;39.686;2023-05-20T08:45:16;6.35;;;0.80;;
63342;SDS011;49465;57.664;39.686;2023-05-20T08:47:43;1.83;;;0.85;;
63342;SDS011;49465;57.664;39.686;2023-05-20T08:50:10;2.25;;;0.80;;
63342;SDS011;49465;57.664;39.686;2023-05-20T08:52:42;2.85;;;0.75;;
63342;SDS011;49465;57.664;39.686;2023-05-20T08:55:13;2.47;;;0.75;;
63342;SDS011;49465;57.664;39.686;2023-05-20T08:57:42;1.65;;;0.70;;
63342;SDS011;49465;57.664;39.686;2023-05-20T09:00:15;1.50;;;0.80;;
63342;SDS011;49465;57.664;39.686;2023-05-20T09:02:43;2.13;;;0.80;;
63342;SDS011;49465;57.664;39.686;2023-05-20T09:05:10;1.23;;;0.77;;
63342;SDS011;49465;57.664;39.686;2023-05-20T09:07:37;2.05;;;0.70;;
63342;SDS011;49465;57.664;39.686;2023-05-20T09:10:06;1.40;;;0.77;;
63342;SDS011;49465;57.664;39.686;2023-05-20T09:12:33;4.70;;;0.90;;
63342;SDS011;49465;57.664;39.686;2023-05-20T09:15:00;2.33;;;0.90;;
63342;SDS011;49465;57.664;39.686;2023-05-20T09:17:26;2.95;;;1.00;;
63342;SDS011;49465;57.664;39.686;2023-05-20T09:19:55;3.28;;;1.10;;
63342;SDS011;49465;57.664;39.686;2023-05-20T09:22:25;2.97;;;1.60;;
63342;SDS011;49465;57.664;39.686;2023-05-20T09:24:52;4.45;;;1.60;;
63342;SDS011;49465;57.664;39.686;2023-05-20T09:27:19;1.92;;;1.20;;
63342;SDS011;49465;57.664;39.686;2023-05-20T09:29:46;2.88;;;1.30;;
63342;SDS011;49465;57.664;39.686;2023-05-20T09:32:13;0.85;;;0.82;;
63342;SDS011;49465;57.664;39.686;2023-05-20T09:34:41;1.10;;;1.00;;
63342;SDS011;49465;57.664;39.686;2023-05-20T09:37:09;1.13;;;0.80;;
63342;SDS011;49465;57.664;39.686;2023-05-20T09:39:45;1.65;;;1.25;;
63342;SDS011;49465;57.664;39.686;2023-05-20T09:44:47;5.85;;;1.40;;
63342;SDS011;49465;57.664;39.686;2023-05-20T09:47:15;1.10;;;1.00;;
63342;SDS011;49465;57.664;39.686;2023-05-20T09:49:42;1.40;;;0.90;;
63342;SDS011;49465;57.664;39.686;2023-05-20T09:52:09;1.00;;;0.77;;
63342;SDS011;49465;57.664;39.686;2023-05-20T09:54:37;1.60;;;0.80;;
63342;SDS011;49465;57.664;39.686;2023-05-20T09:57:03;1.73;;;0.82;;
63342;SDS011;49465;57.664;39.686;2023-05-20T09:59:31;1.02;;;0.82;;
63342;SDS011;49465;57.664;39.686;2023-05-20T10:02:01;2.20;;;0.80;;
63342;SDS011;49465;57.664;39.686;2023-05-20T10:04:30;1.83;;;0.80;;
63342;SDS011;49465;57.664;39.686;2023-05-20T10:07:44;2.70;;;0.90;;
63342;SDS011;49465;57.664;39.686;2023-05-20T10:12:54;5.00;;;0.93;;
63342;SDS011;49465;57.664;39.686;2023-05-20T10:15:29;2.13;;;1.02;;
63342;SDS011;49465;57.664;39.686;2023-05-20T10:21:01;1.20;;;0.90;;
63342;SDS011;49465;57.664;39.686;2023-05-20T10:23:46;2.40;;;0.80;;
63342;SDS011;49465;57.664;39.686;2023-05-20T10:26:15;8.93;;;0.90;;
63342;SDS011;49465;57.664;39.686;2023-05-20T10:28:45;1.30;;;0.88;;
63342;SDS011;49465;57.664;39.686;2023-05-20T10:31:17;1.33;;;0.80;;
63342;SDS011;49465;57.664;39.686;2023-05-20T10:33:48;0.90;;;0.90;;
63342;SDS011;49465;57.664;39.686;2023-05-20T10:36:25;2.88;;;1.00;;
63342;SDS011;49465;57.664;39.686;2023-05-20T10:38:58;0.80;;;0.80;;
63342;SDS011;49465;57.664;39.686;2023-05-20T10:41:33;1.70;;;0.80;;
63342;SDS011;49465;57.664;39.686;2023-05-20T10:44:01;2.88;;;0.90;;
63342;SDS011;49465;57.664;39.686;2023-05-20T10:46:31;2.35;;;0.80;;
63342;SDS011;49465;57.664;39.686;2023-05-20T10:48:58;4.55;;;2.55;;
63342;SDS011;49465;57.664;39.686;2023-05-20T10:51:34;3.13;;;1.70;;
63342;SDS011;49465;57.664;39.686;2023-05-20T10:54:02;4.32;;;1.38;;
63342;SDS011;49465;57.664;39.686;2023-05-20T10:56:31;2.35;;;1.13;;
63342;SDS011;49465;57.664;39.686;2023-05-20T10:59:00;3.15;;;1.30;;
63342;SDS011;49465;57.664;39.686;2023-05-20T11:01:27;2.38;;;1.10;;
63342;SDS011;49465;57.664;39.686;2023-05-20T11:03:53;2.35;;;1.00;;
63342;SDS011;49465;57.664;39.686;2023-05-20T11:06:25;1.60;;;1.10;;
63342;SDS011;49465;57.664;39.686;2023-05-20T11:08:52;3.25;;;1.10;;
63342;SDS011;49465;57.664;39.686;2023-05-20T11:11:20;1.30;;;1.20;;
63342;SDS011;49465;57.664;39.686;2023-05-20T11:13:50;2.45;;;1.10;;
63342;SDS011;49465;57.664;39.686;2023-05-20T11:16:17;2.75;;;1.00;;
63342;SDS011;49465;57.664;39.686;2023-05-20T11:18:47;1.83;;;1.10;;
63342;SDS011;49465;57.664;39.686;2023-05-20T11:21:14;1.98;;;1.20;;
63342;SDS011;49465;57.664;39.686;2023-05-20T11:23:41;2.40;;;1.00;;
63342;SDS011;49465;57.664;39.686;2023-05-20T11:26:07;1.77;;;1.10;;
63342;SDS011;49465;57.664;39.686;2023-05-20T11:28:34;0.90;;;0.90;;
63342;SDS011;49465;57.664;39.686;2023-05-20T11:31:02;1.13;;;0.98;;
63342;SDS011;49465;57.664;39.686;2023-05-20T11:33:32;1.15;;;1.00;;
63342;SDS011;49465;57.664;39.686;2023-05-20T11:35:58;1.80;;;1.10;;
63342;SDS011;49465;57.664;39.686;2023-05-20T11:38:27;2.08;;;0.93;;
63342;SDS011;49465;57.664;39.686;2023-05-20T11:40:56;1.35;;;1.00;;
63342;SDS011;49465;57.664;39.686;2023-05-20T11:43:23;2.28;;;1.05;;
63342;SDS011;49465;57.664;39.686;2023-05-20T11:45:53;3.03;;;1.02;;
63342;SDS011;49465;57.664;39.686;2023-05-20T11:48:23;3.50;;;1.15;;
63342;SDS011;49465;57.664;39.686;2023-05-20T11:50:51;1.35;;;1.00;;
63342;SDS011;49465;57.664;39.686;2023-05-20T11:53:22;2.15;;;1.10;;
63342;SDS011;49465;57.664;39.686;2023-05-20T11:55:56;1.23;;;1.10;;
63342;SDS011;49465;57.664;39.686;2023-05-20T11:58:30;3.63;;;1.40;;
63342;SDS011;49465;57.664;39.686;2023-05-20T12:00:57;3.33;;;1.20;;
63342;SDS011;49465;57.664;39.686;2023-05-20T12:03:23;3.63;;;1.40;;
63342;SDS011;49465;57.664;39.686;2023-05-20T12:05:50;2.55;;;1.30;;
63342;SDS011;49465;57.664;39.686;2023-05-20T12:08:17;2.15;;;1.30;;
63342;SDS011;49465;57.664;39.686;2023-05-20T12:10:46;1.83;;;1.10;;
63342;SDS011;49465;57.664;39.686;2023-05-20T12:13:13;1.90;;;1.30;;
63342;SDS011;49465;57.664;39.686;2023-05-20T12:15:39;1.58;;;1.20;;
63342;SDS011;49465;57.664;39.686;2023-05-20T12:18:09;1.95;;;1.20;;
63342;SDS011;49465;57.664;39.686;2023-05-20T12:20:38;4.00;;;1.40;;
63342;SDS011;49465;57.664;39.686;2023-05-20T12:23:04;2.17;;;1.23;;
63342;SDS011;49465;57.664;39.686;2023-05-20T12:25:30;3.30;;;1.17;;
63342;SDS011;49465;57.664;39.686;2023-05-20T12:27:57;2.35;;;1.20;;
63342;SDS011;49465;57.664;39.686;2023-05-20T12:30:25;1.48;;;1.20;;
63342;SDS011;49465;57.664;39.686;2023-05-20T12:32:51;1.33;;;1.13;;
63342;SDS011;49465;57.664;39.686;2023-05-20T12:35:24;3.03;;;1.23;;
63342;SDS011;49465;57.664;39.686;2023-05-20T12:38:00;1.30;;;1.13;;
63342;SDS011;49465;57.664;39.686;2023-05-20T12:40:26;3.95;;;1.20;;
63342;SDS011;49465;57.664;39.686;2023-05-20T12:42:55;1.40;;;1.20;;
63342;SDS011;49465;57.664;39.686;2023-05-20T12:45:22;3.35;;;1.20;;
63342;SDS011;49465;57.664;39.686;2023-05-20T12:47:49;1.90;;;1.30;;
63342;SDS011;49465;57.664;39.686;2023-05-20T12:50:15;2.42;;;1.30;;
63342;SDS011;49465;57.664;39.686;2023-05-20T12:52:44;2.00;;;1.50;;
63342;SDS011;49465;57.664;39.686;2023-05-20T12:55:11;1.95;;;1.30;;
63342;SDS011;49465;57.664;39.686;2023-05-20T12:57:41;1.95;;;1.15;;
63342;SDS011;49465;57.664;39.686;2023-05-20T13:00:09;3.75;;;1.30;;
63342;SDS011;49465;57.664;39.686;2023-05-20T13:02:36;2.85;;;1.48;;
63342;SDS011;49465;57.664;39.686;2023-05-20T13:05:04;3.83;;;1.60;;
63342;SDS011;49465;57.664;39.686;2023-05-20T13:07:31;2.08;;;1.40;;
63342;SDS011;49465;57.664;39.686;2023-05-20T13:09:58;2.08;;;1.27;;
63342;SDS011;49465;57.664;39.686;2023-05-20T13:12:30;1.38;;;1.27;;
63342;SDS011;49465;57.664;39.686;2023-05-20T13:14:56;2.58;;;1.45;;
63342;SDS011;49465;57.664;39.686;2023-05-20T13:17:22;1.52;;;1.40;;
63342;SDS011;49465;57.664;39.686;2023-05-20T13:19:49;3.88;;;1.58;;
63342;SDS011;49465;57.664;39.686;2023-05-20T13:22:15;1.60;;;1.20;;
63342;SDS011;49465;57.664;39.686;2023-05-20T13:24:41;3.63;;;1.88;;
63342;SDS011;49465;57.664;39.686;2023-05-20T13:27:08;1.63;;;1.52;;
63342;SDS011;49465;57.664;39.686;2023-05-20T13:29:34;3.80;;;1.50;;
63342;SDS011;49465;57.664;39.686;2023-05-20T13:32:01;3.42;;;1.50;;
63342;SDS011;49465;57.664;39.686;2023-05-20T13:34:31;3.47;;;1.73;;
63342;SDS011;49465;57.664;39.686;2023-05-20T13:36:58;1.90;;;1.70;;
63342;SDS011;49465;57.664;39.686;2023-05-20T13:39:24;3.08;;;1.65;;
63342;SDS011;49465;57.664;39.686;2023-05-20T13:41:54;2.55;;;1.70;;
63342;SDS011;49465;57.664;39.686;2023-05-20T13:44:20;3.05;;;1.60;;
63342;SDS011;49465;57.664;39.686;2023-05-20T13:46:46;5.18;;;2.17;;
63342;SDS011;49465;57.664;39.686;2023-05-20T13:49:16;4.32;;;1.90;;
63342;SDS011;49465;57.664;39.686;2023-05-20T13:51:42;2.22;;;1.80;;
63342;SDS011;49465;57.664;39.686;2023-05-20T13:54:10;62.00;;;28.55;;
63342;SDS011;49465;57.664;39.686;2023-05-20T13:56:36;12.57;;;8.10;;
63342;SDS011;49465;57.664;39.686;2023-05-20T13:59:05;9.98;;;8.55;;
63342;SDS011;49465;57.664;39.686;2023-05-20T14:01:32;14.02;;;12.65;;
63342;SDS011;49465;57.664;39.686;2023-05-20T14:03:59;40.88;;;36.72;;
63342;SDS011;49465;57.664;39.686;2023-05-20T14:06:25;37.88;;;34.20;;
63342;SDS011;49465;57.664;39.686;2023-05-20T14:08:53;25.15;;;22.45;;
63342;SDS011;49465;57.664;39.686;2023-05-20T14:11:20;12.07;;;10.88;;
63342;SDS011;49465;57.664;39.686;2023-05-20T14:13:56;10.82;;;9.48;;
63342;SDS011;49465;57.664;39.686;2023-05-20T14:16:22;10.23;;;7.63;;
63342;SDS011;49465;57.664;39.686;2023-05-20T14:18:48;8.48;;;7.68;;
63342;SDS011;49465;57.664;39.686;2023-05-20T14:21:15;12.10;;;8.70;;
63342;SDS011;49465;57.664;39.686;2023-05-20T14:23:41;8.05;;;6.82;;
63342;SDS011;49465;57.664;39.686;2023-05-20T14:26:12;4.88;;;3.78;;
63342;SDS011;49465;57.664;39.686;2023-05-20T14:28:39;3.45;;;2.95;;
63342;SDS011;49465;57.664;39.686;2023-05-20T14:31:05;4.38;;;2.75;;
63342;SDS011;49465;57.664;39.686;2023-05-20T14:33:32;4.18;;;3.47;;
63342;SDS011;49465;57.664;39.686;2023-05-20T14:36:04;2.80;;;2.20;;
63342;SDS011;49465;57.664;39.686;2023-05-20T14:38:31;3.22;;;2.35;;
63342;SDS011;49465;57.664;39.686;2023-05-20T14:40:57;2.53;;;2.17;;
63342;SDS011;49465;57.664;39.686;2023-05-20T14:43:26;2.67;;;2.28;;
63342;SDS011;49465;57.664;39.686;2023-05-20T14:45:52;4.15;;;2.38;;